sensor_id;sensor_type;location;lat;lon;timestamp;temperature;humidity
75821;DHT22;64454;51.984;9.838;2022-12-07T00:01:27;5.80;99.90
75821;DHT22;64454;51.984;9.838;2022-12-07T00:03:58;5.80;99.90
75821;DHT22;64454;51.984;9.838;2022-12-07T00:06:30;5.70;99.90
75821;DHT22;64454;51.984;9.838;2022-12-07T00:08:58;5.60;99.90
75821;DHT22;64454;51.984;9.838;2022-12-07T00:11:25;5.50;99.90
75821;DHT22;64454;51.984;9.838;2022-12-07T00:13:53;5.50;99.90
75821;DHT22;64454;51.984;9.838;2022-12-07T00:16:25;5.50;99.90
75821;DHT22;64454;51.984;9.838;2022-12-07T00:18:54;5.50;99.90
75821;DHT22;64454;51.984;9.838;2022-12-07T00:21:23;5.50;99.90
75821;DHT22;64454;51.984;9.838;2022-12-07T00:23:53;5.50;99.90
75821;DHT22;64454;51.984;9.838;2022-12-07T00:26:23;5.50;99.90
75821;DHT22;64454;51.984;9.838;2022-12-07T00:28:53;5.40;99.90
75821;DHT22;64454;51.984;9.838;2022-12-07T00:31:25;5.40;99.90
75821;DHT22;64454;51.984;9.838;2022-12-07T00:33:54;5.30;99.90
75821;DHT22;64454;51.984;9.838;2022-12-07T00:36:23;5.20;99.90
75821;DHT22;64454;51.984;9.838;2022-12-07T00:38:51;5.30;99.90
75821;DHT22;64454;51.984;9.838;2022-12-07T00:41:19;5.40;99.90
75821;DHT22;64454;51.984;9.838;2022-12-07T00:43:49;5.30;99.90
75821;DHT22;64454;51.984;9.838;2022-12-07T00:46:18;5.50;99.90
75821;DHT22;64454;51.984;9.838;2022-12-07T00:48:48;5.50;99.90
75821;DHT22;64454;51.984;9.838;2022-12-07T00:51:19;5.50;99.90
75821;DHT22;64454;51.984;9.838;2022-12-07T00:53:47;5.50;99.90
75821;DHT22;64454;51.984;9.838;2022-12-07T00:56:16;5.40;99.90
75821;DHT22;64454;51.984;9.838;2022-12-07T00:58:44;5.50;99.90
75821;DHT22;64454;51.984;9.838;2022-12-07T01:01:16;5.50;99.90
75821;DHT22;64454;51.984;9.838;2022-12-07T01:03:43;5.50;99.90
75821;DHT22;64454;51.984;9.838;2022-12-07T01:06:14;5.50;99.90
75821;DHT22;64454;51.984;9.838;2022-12-07T01:08:42;5.50;99.90
75821;DHT22;64454;51.984;9.838;2022-12-07T01:11:12;5.60;99.90
75821;DHT22;64454;51.984;9.838;2022-12-07T01:13:40;5.60;99.90
75821;DHT22;64454;51.984;9.838;2022-12-07T01:16:09;5.60;99.90
75821;DHT22;64454;51.984;9.838;2022-12-07T01:18:38;5.60;99.90
75821;DHT22;64454;51.984;9.838;2022-12-07T01:21:07;5.70;99.90
75821;DHT22;64454;51.984;9.838;2022-12-07T01:23:37;5.70;99.90
75821;DHT22;64454;51.984;9.838;2022-12-07T01:26:07;5.60;99.90
75821;DHT22;64454;51.984;9.838;2022-12-07T01:28:36;5.50;99.90
75821;DHT22;64454;51.984;9.838;2022-12-07T01:31:05;5.60;99.90
75821;DHT22;64454;51.984;9.838;2022-12-07T01:33:37;5.60;99.90
75821;DHT22;64454;51.984;9.838;2022-12-07T01:36:06;5.60;99.90
75821;DHT22;64454;51.984;9.838;2022-12-07T01:38:34;5.70;99.90
75821;DHT22;64454;51.984;9.838;2022-12-07T01:41:02;5.70;99.90
75821;DHT22;64454;51.984;9.838;2022-12-07T01:43:31;5.80;99.90
75821;DHT22;64454;51.984;9.838;2022-12-07T01:46:00;5.70;99.90
75821;DHT22;64454;51.984;9.838;2022-12-07T01:48:29;5.80;99.90
75821;DHT22;64454;51.984;9.838;2022-12-07T01:51:01;5.80;99.90
75821;DHT22;64454;51.984;9.838;2022-12-07T01:53:32;5.80;99.90
75821;DHT22;64454;51.984;9.838;2022-12-07T01:56:05;5.80;99.90
75821;DHT22;64454;51.984;9.838;2022-12-07T01:58:35;5.90;99.90
75821;DHT22;64454;51.984;9.838;2022-12-07T02:01:03;5.90;99.90
75821;DHT22;64454;51.984;9.838;2022-12-07T02:03:34;5.90;99.90
75821;DHT22;64454;51.984;9.838;2022-12-07T02:06:05;5.90;99.90
75821;DHT22;64454;51.984;9.838;2022-12-07T02:08:33;5.90;99.90
75821;DHT22;64454;51.984;9.838;2022-12-07T02:11:01;5.90;99.90
75821;DHT22;64454;51.984;9.838;2022-12-07T02:13:33;6.00;99.90
75821;DHT22;64454;51.984;9.838;2022-12-07T02:16:14;6.10;99.90
75821;DHT22;64454;51.984;9.838;2022-12-07T02:18:58;6.20;99.90
75821;DHT22;64454;51.984;9.838;2022-12-07T02:21:45;6.30;99.90
75821;DHT22;64454;51.984;9.838;2022-12-07T02:24:43;6.30;99.90
75821;DHT22;64454;51.984;9.838;2022-12-07T02:27:37;6.00;99.90
75821;DHT22;64454;51.984;9.838;2022-12-07T02:30:13;5.90;99.90
75821;DHT22;64454;51.984;9.838;2022-12-07T02:32:45;5.80;99.90
75821;DHT22;64454;51.984;9.838;2022-12-07T02:35:22;5.80;99.90
75821;DHT22;64454;51.984;9.838;2022-12-07T02:38:02;6.00;99.90
75821;DHT22;64454;51.984;9.838;2022-12-07T02:40:39;5.90;99.90
75821;DHT22;64454;51.984;9.838;2022-12-07T02:43:16;5.90;99.90
75821;DHT22;64454;51.984;9.838;2022-12-07T02:45:48;6.00;99.90
75821;DHT22;64454;51.984;9.838;2022-12-07T02:48:19;6.00;99.90
75821;DHT22;64454;51.984;9.838;2022-12-07T02:50:49;6.00;99.90
75821;DHT22;64454;51.984;9.838;2022-12-07T02:53:30;6.00;99.90
75821;DHT22;64454;51.984;9.838;2022-12-07T02:55:59;6.10;99.90
75821;DHT22;64454;51.984;9.838;2022-12-07T02:58:37;6.10;99.90
75821;DHT22;64454;51.984;9.838;2022-12-07T03:01:24;6.20;99.90
75821;DHT22;64454;51.984;9.838;2022-12-07T03:04:05;6.20;99.90
75821;DHT22;64454;51.984;9.838;2022-12-07T03:06:44;6.30;99.90
75821;DHT22;64454;51.984;9.838;2022-12-07T03:09:21;6.40;99.90
75821;DHT22;64454;51.984;9.838;2022-12-07T03:12:00;6.40;99.90
75821;DHT22;64454;51.984;9.838;2022-12-07T03:14:38;6.30;99.90
75821;DHT22;64454;51.984;9.838;2022-12-07T03:17:13;6.20;99.90
75821;DHT22;64454;51.984;9.838;2022-12-07T03:19:45;6.20;99.90
75821;DHT22;64454;51.984;9.838;2022-12-07T03:22:16;6.20;99.90
75821;DHT22;64454;51.984;9.838;2022-12-07T03:24:48;6.30;99.90
75821;DHT22;64454;51.984;9.838;2022-12-07T03:27:21;6.40;99.90
75821;DHT22;64454;51.984;9.838;2022-12-07T03:29:55;6.40;99.90
75821;DHT22;64454;51.984;9.838;2022-12-07T03:32:30;6.40;99.90
75821;DHT22;64454;51.984;9.838;2022-12-07T03:35:07;6.50;99.90
75821;DHT22;64454;51.984;9.838;2022-12-07T03:37:42;6.50;99.90
75821;DHT22;64454;51.984;9.838;2022-12-07T03:40:16;6.50;99.90
75821;DHT22;64454;51.984;9.838;2022-12-07T03:42:48;6.40;99.90
75821;DHT22;64454;51.984;9.838;2022-12-07T03:45:17;6.40;99.90
75821;DHT22;64454;51.984;9.838;2022-12-07T03:47:53;6.40;99.90
75821;DHT22;64454;51.984;9.838;2022-12-07T03:50:31;6.30;99.90
75821;DHT22;64454;51.984;9.838;2022-12-07T03:53:09;6.30;99.90
75821;DHT22;64454;51.984;9.838;2022-12-07T03:55:43;6.20;99.90
75821;DHT22;64454;51.984;9.838;2022-12-07T03:58:15;6.20;99.90
75821;DHT22;64454;51.984;9.838;2022-12-07T04:00:46;6.20;99.90
75821;DHT22;64454;51.984;9.838;2022-12-07T04:03:14;6.30;99.90
75821;DHT22;64454;51.984;9.838;2022-12-07T04:05:42;6.30;99.90
75821;DHT22;64454;51.984;9.838;2022-12-07T04:08:09;6.30;99.90
75821;DHT22;64454;51.984;9.838;2022-12-07T04:10:36;6.40;99.90
75821;DHT22;64454;51.984;9.838;2022-12-07T04:13:03;6.20;99.90
75821;DHT22;64454;51.984;9.838;2022-12-07T04:15:30;6.30;99.90
75821;DHT22;64454;51.984;9.838;2022-12-07T04:17:57;6.40;99.90
75821;DHT22;64454;51.984;9.838;2022-12-07T04:20:25;6.40;99.90
75821;DHT22;64454;51.984;9.838;2022-12-07T04:22:52;6.40;99.90
75821;DHT22;64454;51.984;9.838;2022-12-07T04:25:19;6.50;99.90
75821;DHT22;64454;51.984;9.838;2022-12-07T04:27:46;6.50;99.90
75821;DHT22;64454;51.984;9.838;2022-12-07T04:30:13;6.50;99.90
75821;DHT22;64454;51.984;9.838;2022-12-07T04:32:40;6.60;99.90
75821;DHT22;64454;51.984;9.838;2022-12-07T04:35:08;6.50;99.90
75821;DHT22;64454;51.984;9.838;2022-12-07T04:37:36;6.40;99.90
75821;DHT22;64454;51.984;9.838;2022-12-07T04:40:06;6.40;99.90
75821;DHT22;64454;51.984;9.838;2022-12-07T04:42:36;6.40;99.90
75821;DHT22;64454;51.984;9.838;2022-12-07T04:45:04;6.30;99.90
75821;DHT22;64454;51.984;9.838;2022-12-07T04:47:31;6.30;99.90
75821;DHT22;64454;51.984;9.838;2022-12-07T04:49:58;6.30;99.90
75821;DHT22;64454;51.984;9.838;2022-12-07T04:52:25;6.20;99.90
75821;DHT22;64454;51.984;9.838;2022-12-07T04:54:53;6.10;99.90
75821;DHT22;64454;51.984;9.838;2022-12-07T04:57:20;6.10;99.90
75821;DHT22;64454;51.984;9.838;2022-12-07T04:59:47;6.10;99.90
75821;DHT22;64454;51.984;9.838;2022-12-07T05:02:14;6.20;99.90
75821;DHT22;64454;51.984;9.838;2022-12-07T05:04:41;6.10;99.90
75821;DHT22;64454;51.984;9.838;2022-12-07T05:07:08;6.10;99.90
75821;DHT22;64454;51.984;9.838;2022-12-07T05:09:35;6.10;99.90
75821;DHT22;64454;51.984;9.838;2022-12-07T05:12:03;6.10;99.90
75821;DHT22;64454;51.984;9.838;2022-12-07T05:14:30;6.10;99.90
75821;DHT22;64454;51.984;9.838;2022-12-07T05:16:57;6.10;99.90
75821;DHT22;64454;51.984;9.838;2022-12-07T05:19:24;6.20;99.90
75821;DHT22;64454;51.984;9.838;2022-12-07T05:21:52;6.30;99.90
75821;DHT22;64454;51.984;9.838;2022-12-07T05:24:19;6.20;99.90
75821;DHT22;64454;51.984;9.838;2022-12-07T05:26:45;6.30;99.90
75821;DHT22;64454;51.984;9.838;2022-12-07T05:29:15;6.40;99.90
75821;DHT22;64454;51.984;9.838;2022-12-07T05:31:43;6.30;99.90
75821;DHT22;64454;51.984;9.838;2022-12-07T05:34:11;6.30;99.90
75821;DHT22;64454;51.984;9.838;2022-12-07T05:36:39;6.40;99.90
75821;DHT22;64454;51.984;9.838;2022-12-07T05:39:07;6.40;99.90
75821;DHT22;64454;51.984;9.838;2022-12-07T05:41:34;6.30;99.90
75821;DHT22;64454;51.984;9.838;2022-12-07T05:44:20;6.30;99.90
75821;DHT22;64454;51.984;9.838;2022-12-07T05:46:46;6.30;99.90
75821;DHT22;64454;51.984;9.838;2022-12-07T05:49:13;6.30;99.90
75821;DHT22;64454;51.984;9.838;2022-12-07T05:51:40;6.40;99.90
75821;DHT22;64454;51.984;9.838;2022-12-07T05:54:08;6.40;99.90
75821;DHT22;64454;51.984;9.838;2022-12-07T05:56:35;6.40;99.90
75821;DHT22;64454;51.984;9.838;2022-12-07T05:59:02;6.40;99.90
75821;DHT22;64454;51.984;9.838;2022-12-07T06:01:48;6.40;99.90
75821;DHT22;64454;51.984;9.838;2022-12-07T06:04:15;6.40;99.90
75821;DHT22;64454;51.984;9.838;2022-12-07T06:06:42;6.30;99.90
75821;DHT22;64454;51.984;9.838;2022-12-07T06:09:08;6.30;99.90
75821;DHT22;64454;51.984;9.838;2022-12-07T06:11:36;6.30;99.90
75821;DHT22;64454;51.984;9.838;2022-12-07T06:14:20;6.30;99.90
75821;DHT22;64454;51.984;9.838;2022-12-07T06:16:49;6.30;99.90
75821;DHT22;64454;51.984;9.838;2022-12-07T06:19:16;6.20;99.90
75821;DHT22;64454;51.984;9.838;2022-12-07T06:21:43;6.20;99.90
75821;DHT22;64454;51.984;9.838;2022-12-07T06:24:11;6.20;99.90
75821;DHT22;64454;51.984;9.838;2022-12-07T06:26:39;6.30;99.90
75821;DHT22;64454;51.984;9.838;2022-12-07T06:29:06;6.40;99.90
75821;DHT22;64454;51.984;9.838;2022-12-07T06:31:35;6.50;99.90
75821;DHT22;64454;51.984;9.838;2022-12-07T06:34:04;6.50;99.90
75821;DHT22;64454;51.984;9.838;2022-12-07T06:36:33;6.40;91.40
75821;DHT22;64454;51.984;9.838;2022-12-07T06:39:00;6.50;96.90
75821;DHT22;64454;51.984;9.838;2022-12-07T06:41:27;6.60;96.70
75821;DHT22;64454;51.984;9.838;2022-12-07T06:43:54;6.60;92.70
75821;DHT22;64454;51.984;9.838;2022-12-07T06:46:21;6.70;85.70
75821;DHT22;64454;51.984;9.838;2022-12-07T06:48:49;6.70;83.10
75821;DHT22;64454;51.984;9.838;2022-12-07T06:51:17;6.70;67.90
75821;DHT22;64454;51.984;9.838;2022-12-07T06:53:44;6.60;66.90
75821;DHT22;64454;51.984;9.838;2022-12-07T06:56:11;6.50;69.10
75821;DHT22;64454;51.984;9.838;2022-12-07T06:58:39;6.50;71.50
75821;DHT22;64454;51.984;9.838;2022-12-07T07:01:09;6.50;66.50
75821;DHT22;64454;51.984;9.838;2022-12-07T07:03:37;6.40;70.20
75821;DHT22;64454;51.984;9.838;2022-12-07T07:06:05;6.40;76.80
75821;DHT22;64454;51.984;9.838;2022-12-07T07:08:35;6.40;76.00
75821;DHT22;64454;51.984;9.838;2022-12-07T07:11:02;6.40;77.60
75821;DHT22;64454;51.984;9.838;2022-12-07T07:13:30;6.50;80.10
75821;DHT22;64454;51.984;9.838;2022-12-07T07:15:57;6.50;74.50
75821;DHT22;64454;51.984;9.838;2022-12-07T07:18:24;6.50;71.80
75821;DHT22;64454;51.984;9.838;2022-12-07T07:20:52;6.40;76.20
75821;DHT22;64454;51.984;9.838;2022-12-07T07:23:19;6.50;74.50
75821;DHT22;64454;51.984;9.838;2022-12-07T07:25:49;6.60;77.80
75821;DHT22;64454;51.984;9.838;2022-12-07T07:28:16;6.30;59.80
75821;DHT22;64454;51.984;9.838;2022-12-07T07:30:43;6.40;75.10
75821;DHT22;64454;51.984;9.838;2022-12-07T07:33:11;6.40;76.60
75821;DHT22;64454;51.984;9.838;2022-12-07T07:35:39;6.40;81.70
75821;DHT22;64454;51.984;9.838;2022-12-07T07:38:06;6.30;85.20
75821;DHT22;64454;51.984;9.838;2022-12-07T07:40:34;6.20;93.00
75821;DHT22;64454;51.984;9.838;2022-12-07T07:43:02;6.10;95.20
75821;DHT22;64454;51.984;9.838;2022-12-07T07:45:29;6.20;99.90
75821;DHT22;64454;51.984;9.838;2022-12-07T07:47:56;6.20;99.90
75821;DHT22;64454;51.984;9.838;2022-12-07T07:50:23;6.20;99.90
75821;DHT22;64454;51.984;9.838;2022-12-07T07:52:51;6.30;99.90
75821;DHT22;64454;51.984;9.838;2022-12-07T07:55:18;6.30;98.40
75821;DHT22;64454;51.984;9.838;2022-12-07T07:57:45;6.40;90.40
75821;DHT22;64454;51.984;9.838;2022-12-07T08:00:15;6.50;79.20
75821;DHT22;64454;51.984;9.838;2022-12-07T08:02:42;6.50;65.30
75821;DHT22;64454;51.984;9.838;2022-12-07T08:05:10;6.40;65.00
75821;DHT22;64454;51.984;9.838;2022-12-07T08:07:38;6.30;71.00
75821;DHT22;64454;51.984;9.838;2022-12-07T08:10:07;6.20;75.90
75821;DHT22;64454;51.984;9.838;2022-12-07T08:12:36;6.30;97.80
75821;DHT22;64454;51.984;9.838;2022-12-07T08:15:26;6.40;84.60
75821;DHT22;64454;51.984;9.838;2022-12-07T08:17:54;6.40;86.80
75821;DHT22;64454;51.984;9.838;2022-12-07T08:20:21;6.40;81.70
75821;DHT22;64454;51.984;9.838;2022-12-07T08:22:49;6.40;72.20
75821;DHT22;64454;51.984;9.838;2022-12-07T08:25:16;6.50;73.80
75821;DHT22;64454;51.984;9.838;2022-12-07T08:27:43;6.50;70.60
75821;DHT22;64454;51.984;9.838;2022-12-07T08:30:10;6.50;74.80
75821;DHT22;64454;51.984;9.838;2022-12-07T08:32:39;6.60;71.60
75821;DHT22;64454;51.984;9.838;2022-12-07T08:35:06;6.50;46.00
75821;DHT22;64454;51.984;9.838;2022-12-07T08:37:35;6.60;51.50
75821;DHT22;64454;51.984;9.838;2022-12-07T08:40:02;6.50;49.60
75821;DHT22;64454;51.984;9.838;2022-12-07T08:42:30;6.50;46.50
75821;DHT22;64454;51.984;9.838;2022-12-07T08:45:04;6.60;50.70
75821;DHT22;64454;51.984;9.838;2022-12-07T08:47:32;6.60;44.80
75821;DHT22;64454;51.984;9.838;2022-12-07T08:50:02;6.60;47.80
75821;DHT22;64454;51.984;9.838;2022-12-07T08:52:32;6.60;49.20
75821;DHT22;64454;51.984;9.838;2022-12-07T08:55:02;6.70;50.10
75821;DHT22;64454;51.984;9.838;2022-12-07T08:57:33;6.70;47.80
75821;DHT22;64454;51.984;9.838;2022-12-07T09:00:03;6.70;40.90
75821;DHT22;64454;51.984;9.838;2022-12-07T09:02:31;6.70;36.50
75821;DHT22;64454;51.984;9.838;2022-12-07T09:04:58;6.60;33.90
75821;DHT22;64454;51.984;9.838;2022-12-07T09:07:26;6.60;42.40
75821;DHT22;64454;51.984;9.838;2022-12-07T09:09:54;6.60;33.30
75821;DHT22;64454;51.984;9.838;2022-12-07T09:12:21;6.60;37.90
75821;DHT22;64454;51.984;9.838;2022-12-07T09:14:48;6.60;37.40
75821;DHT22;64454;51.984;9.838;2022-12-07T09:17:15;6.70;50.60
75821;DHT22;64454;51.984;9.838;2022-12-07T09:19:42;6.70;35.20
75821;DHT22;64454;51.984;9.838;2022-12-07T09:22:09;6.60;38.30
75821;DHT22;64454;51.984;9.838;2022-12-07T09:24:37;6.50;45.90
75821;DHT22;64454;51.984;9.838;2022-12-07T09:27:04;6.60;59.70
75821;DHT22;64454;51.984;9.838;2022-12-07T09:29:31;6.70;66.60
75821;DHT22;64454;51.984;9.838;2022-12-07T09:31:58;6.80;56.50
75821;DHT22;64454;51.984;9.838;2022-12-07T09:34:25;6.90;58.50
75821;DHT22;64454;51.984;9.838;2022-12-07T09:36:52;6.90;52.20
75821;DHT22;64454;51.984;9.838;2022-12-07T09:39:19;6.90;40.30
75821;DHT22;64454;51.984;9.838;2022-12-07T09:41:48;6.80;36.60
75821;DHT22;64454;51.984;9.838;2022-12-07T09:44:20;6.70;39.20
75821;DHT22;64454;51.984;9.838;2022-12-07T09:46:49;6.60;38.10
75821;DHT22;64454;51.984;9.838;2022-12-07T09:49:20;6.70;40.20
75821;DHT22;64454;51.984;9.838;2022-12-07T09:52:00;6.70;38.00
75821;DHT22;64454;51.984;9.838;2022-12-07T09:54:29;6.70;41.40
75821;DHT22;64454;51.984;9.838;2022-12-07T09:56:58;6.50;36.80
75821;DHT22;64454;51.984;9.838;2022-12-07T09:59:26;6.50;36.80
75821;DHT22;64454;51.984;9.838;2022-12-07T10:01:53;6.50;45.20
75821;DHT22;64454;51.984;9.838;2022-12-07T10:04:22;6.50;49.20
75821;DHT22;64454;51.984;9.838;2022-12-07T10:06:52;6.50;60.00
75821;DHT22;64454;51.984;9.838;2022-12-07T10:09:21;6.60;59.90
75821;DHT22;64454;51.984;9.838;2022-12-07T10:12:05;6.60;59.60
75821;DHT22;64454;51.984;9.838;2022-12-07T10:14:35;6.50;68.80
75821;DHT22;64454;51.984;9.838;2022-12-07T10:17:29;6.60;70.40
75821;DHT22;64454;51.984;9.838;2022-12-07T10:20:18;6.60;72.80
75821;DHT22;64454;51.984;9.838;2022-12-07T10:22:57;6.50;65.80
75821;DHT22;64454;51.984;9.838;2022-12-07T10:25:29;6.50;66.20
75821;DHT22;64454;51.984;9.838;2022-12-07T10:28:02;6.50;63.00
75821;DHT22;64454;51.984;9.838;2022-12-07T10:30:48;6.60;65.10
75821;DHT22;64454;51.984;9.838;2022-12-07T10:33:33;6.70;58.80
75821;DHT22;64454;51.984;9.838;2022-12-07T10:36:16;6.60;56.80
75821;DHT22;64454;51.984;9.838;2022-12-07T10:38:48;6.60;54.40
75821;DHT22;64454;51.984;9.838;2022-12-07T10:41:16;6.50;62.20
75821;DHT22;64454;51.984;9.838;2022-12-07T10:43:51;6.50;75.90
75821;DHT22;64454;51.984;9.838;2022-12-07T10:46:50;6.50;83.00
75821;DHT22;64454;51.984;9.838;2022-12-07T10:53:02;6.60;69.00
75821;DHT22;64454;51.984;9.838;2022-12-07T10:55:51;6.70;72.80
75821;DHT22;64454;51.984;9.838;2022-12-07T10:58:41;6.70;49.30
75821;DHT22;64454;51.984;9.838;2022-12-07T11:01:25;6.80;39.50
75821;DHT22;64454;51.984;9.838;2022-12-07T11:04:22;6.90;33.60
75821;DHT22;64454;51.984;9.838;2022-12-07T11:07:01;6.90;31.10
75821;DHT22;64454;51.984;9.838;2022-12-07T11:09:55;7.00;35.00
75821;DHT22;64454;51.984;9.838;2022-12-07T11:12:40;7.10;37.20
75821;DHT22;64454;51.984;9.838;2022-12-07T11:15:18;7.10;33.20
75821;DHT22;64454;51.984;9.838;2022-12-07T11:17:56;7.20;23.50
75821;DHT22;64454;51.984;9.838;2022-12-07T11:20:39;7.20;23.00
75821;DHT22;64454;51.984;9.838;2022-12-07T11:23:18;7.40;27.70
75821;DHT22;64454;51.984;9.838;2022-12-07T11:25:59;7.50;26.60
75821;DHT22;64454;51.984;9.838;2022-12-07T11:28:43;7.30;2.40
75821;DHT22;64454;51.984;9.838;2022-12-07T11:31:31;7.00;6.80
75821;DHT22;64454;51.984;9.838;2022-12-07T11:34:24;7.10;15.00
75821;DHT22;64454;51.984;9.838;2022-12-07T11:37:02;7.20;16.70
75821;DHT22;64454;51.984;9.838;2022-12-07T11:39:36;7.10;14.70
75821;DHT22;64454;51.984;9.838;2022-12-07T11:42:13;7.00;13.10
75821;DHT22;64454;51.984;9.838;2022-12-07T11:44:49;7.00;15.00
75821;DHT22;64454;51.984;9.838;2022-12-07T11:47:23;7.00;17.10
75821;DHT22;64454;51.984;9.838;2022-12-07T11:50:03;7.20;31.30
75821;DHT22;64454;51.984;9.838;2022-12-07T11:52:44;7.50;26.70
75821;DHT22;64454;51.984;9.838;2022-12-07T11:55:21;7.80;5.40
75821;DHT22;64454;51.984;9.838;2022-12-07T11:57:57;8.40;2.60
75821;DHT22;64454;51.984;9.838;2022-12-07T12:00:29;8.80;1.00
75821;DHT22;64454;51.984;9.838;2022-12-07T12:03:01;8.80;1.00
75821;DHT22;64454;51.984;9.838;2022-12-07T12:05:33;8.70;1.00
75821;DHT22;64454;51.984;9.838;2022-12-07T12:08:09;8.70;1.00
75821;DHT22;64454;51.984;9.838;2022-12-07T12:10:50;8.60;1.00
75821;DHT22;64454;51.984;9.838;2022-12-07T12:13:38;8.40;1.00
75821;DHT22;64454;51.984;9.838;2022-12-07T12:16:48;8.50;1.00
75821;DHT22;64454;51.984;9.838;2022-12-07T12:19:40;8.70;1.00
75821;DHT22;64454;51.984;9.838;2022-12-07T12:22:17;8.80;1.00
75821;DHT22;64454;51.984;9.838;2022-12-07T12:24:50;8.50;1.00
75821;DHT22;64454;51.984;9.838;2022-12-07T12:27:23;8.50;1.00
75821;DHT22;64454;51.984;9.838;2022-12-07T12:29:54;8.00;1.00
75821;DHT22;64454;51.984;9.838;2022-12-07T12:32:31;7.70;1.00
75821;DHT22;64454;51.984;9.838;2022-12-07T12:35:20;7.50;1.00
75821;DHT22;64454;51.984;9.838;2022-12-07T12:37:55;7.30;1.00
75821;DHT22;64454;51.984;9.838;2022-12-07T12:40:43;7.10;1.00
75821;DHT22;64454;51.984;9.838;2022-12-07T12:43:45;7.00;1.00
75821;DHT22;64454;51.984;9.838;2022-12-07T12:46:38;6.80;1.00
75821;DHT22;64454;51.984;9.838;2022-12-07T12:49:43;6.80;3.80
75821;DHT22;64454;51.984;9.838;2022-12-07T12:52:54;6.80;1.00
75821;DHT22;64454;51.984;9.838;2022-12-07T12:58:46;6.90;8.10
75821;DHT22;64454;51.984;9.838;2022-12-07T13:01:42;6.90;3.90
75821;DHT22;64454;51.984;9.838;2022-12-07T13:07:56;6.90;11.10
75821;DHT22;64454;51.984;9.838;2022-12-07T13:10:40;7.00;15.30
75821;DHT22;64454;51.984;9.838;2022-12-07T13:13:33;7.30;19.50
75821;DHT22;64454;51.984;9.838;2022-12-07T13:16:36;7.50;1.00
75821;DHT22;64454;51.984;9.838;2022-12-07T13:22:49;7.90;1.00
75821;DHT22;64454;51.984;9.838;2022-12-07T13:25:27;8.00;1.00
75821;DHT22;64454;51.984;9.838;2022-12-07T13:28:02;8.00;1.00
75821;DHT22;64454;51.984;9.838;2022-12-07T13:30:42;8.10;1.00
75821;DHT22;64454;51.984;9.838;2022-12-07T13:33:15;8.20;1.00
75821;DHT22;64454;51.984;9.838;2022-12-07T13:35:45;8.30;1.00
75821;DHT22;64454;51.984;9.838;2022-12-07T13:38:25;8.40;1.00
75821;DHT22;64454;51.984;9.838;2022-12-07T13:41:13;8.20;1.00
75821;DHT22;64454;51.984;9.838;2022-12-07T13:43:48;8.00;1.00
75821;DHT22;64454;51.984;9.838;2022-12-07T13:46:18;7.80;1.00
75821;DHT22;64454;51.984;9.838;2022-12-07T13:48:53;7.70;1.00
75821;DHT22;64454;51.984;9.838;2022-12-07T13:51:23;7.60;1.00
75821;DHT22;64454;51.984;9.838;2022-12-07T13:53:53;7.70;1.00
75821;DHT22;64454;51.984;9.838;2022-12-07T13:56:32;7.80;1.00
75821;DHT22;64454;51.984;9.838;2022-12-07T13:59:01;7.90;1.00
75821;DHT22;64454;51.984;9.838;2022-12-07T14:01:31;7.80;1.00
75821;DHT22;64454;51.984;9.838;2022-12-07T14:04:17;7.70;1.00
75821;DHT22;64454;51.984;9.838;2022-12-07T14:06:57;7.70;1.00
75821;DHT22;64454;51.984;9.838;2022-12-07T14:09:26;7.70;1.00
75821;DHT22;64454;51.984;9.838;2022-12-07T14:11:56;7.70;1.00
75821;DHT22;64454;51.984;9.838;2022-12-07T14:14:26;7.70;1.00
75821;DHT22;64454;51.984;9.838;2022-12-07T14:17:01;7.70;1.00
75821;DHT22;64454;51.984;9.838;2022-12-07T14:19:48;7.70;1.00
75821;DHT22;64454;51.984;9.838;2022-12-07T14:22:23;7.60;1.00
75821;DHT22;64454;51.984;9.838;2022-12-07T14:27:51;7.50;1.00
75821;DHT22;64454;51.984;9.838;2022-12-07T14:30:22;7.40;1.00
75821;DHT22;64454;51.984;9.838;2022-12-07T14:32:53;7.40;1.00
75821;DHT22;64454;51.984;9.838;2022-12-07T14:35:22;7.30;1.00
75821;DHT22;64454;51.984;9.838;2022-12-07T14:37:50;7.30;1.00
75821;DHT22;64454;51.984;9.838;2022-12-07T14:40:20;7.30;1.00
75821;DHT22;64454;51.984;9.838;2022-12-07T14:42:51;7.20;1.00
75821;DHT22;64454;51.984;9.838;2022-12-07T14:45:22;7.20;1.00
75821;DHT22;64454;51.984;9.838;2022-12-07T14:47:49;7.20;1.00
75821;DHT22;64454;51.984;9.838;2022-12-07T14:50:18;7.00;1.00
75821;DHT22;64454;51.984;9.838;2022-12-07T14:52:49;7.00;1.00
75821;DHT22;64454;51.984;9.838;2022-12-07T14:55:23;7.10;1.00
75821;DHT22;64454;51.984;9.838;2022-12-07T14:57:53;7.00;1.00
75821;DHT22;64454;51.984;9.838;2022-12-07T15:00:22;7.10;1.00
75821;DHT22;64454;51.984;9.838;2022-12-07T15:02:51;7.10;1.00
75821;DHT22;64454;51.984;9.838;2022-12-07T15:05:19;7.10;1.00
75821;DHT22;64454;51.984;9.838;2022-12-07T15:07:47;7.00;1.00
75821;DHT22;64454;51.984;9.838;2022-12-07T15:10:17;6.90;1.00
75821;DHT22;64454;51.984;9.838;2022-12-07T15:12:46;6.80;1.00
75821;DHT22;64454;51.984;9.838;2022-12-07T15:15:15;6.70;1.00
75821;DHT22;64454;51.984;9.838;2022-12-07T15:17:42;6.60;1.00
75821;DHT22;64454;51.984;9.838;2022-12-07T15:20:12;6.60;1.00
75821;DHT22;64454;51.984;9.838;2022-12-07T15:22:40;6.60;1.00
75821;DHT22;64454;51.984;9.838;2022-12-07T15:25:08;6.70;1.00
75821;DHT22;64454;51.984;9.838;2022-12-07T15:27:38;6.60;1.00
75821;DHT22;64454;51.984;9.838;2022-12-07T15:30:06;6.70;1.00
75821;DHT22;64454;51.984;9.838;2022-12-07T15:32:35;6.70;1.00
75821;DHT22;64454;51.984;9.838;2022-12-07T15:35:02;6.80;1.00
75821;DHT22;64454;51.984;9.838;2022-12-07T15:37:30;6.80;1.00
75821;DHT22;64454;51.984;9.838;2022-12-07T15:39:56;6.70;1.00
75821;DHT22;64454;51.984;9.838;2022-12-07T15:42:23;6.70;1.00
75821;DHT22;64454;51.984;9.838;2022-12-07T15:44:50;6.70;1.00
75821;DHT22;64454;51.984;9.838;2022-12-07T15:47:29;6.70;1.00
75821;DHT22;64454;51.984;9.838;2022-12-07T15:49:57;6.60;1.00
75821;DHT22;64454;51.984;9.838;2022-12-07T15:52:24;6.60;1.00
75821;DHT22;64454;51.984;9.838;2022-12-07T15:54:51;6.70;1.00
75821;DHT22;64454;51.984;9.838;2022-12-07T15:57:18;6.50;1.00
75821;DHT22;64454;51.984;9.838;2022-12-07T15:59:45;6.50;1.00
75821;DHT22;64454;51.984;9.838;2022-12-07T16:02:12;6.50;1.00
75821;DHT22;64454;51.984;9.838;2022-12-07T16:04:40;6.50;1.00
75821;DHT22;64454;51.984;9.838;2022-12-07T16:07:09;6.50;1.00
75821;DHT22;64454;51.984;9.838;2022-12-07T16:09:37;6.60;1.00
75821;DHT22;64454;51.984;9.838;2022-12-07T16:12:04;6.60;1.00
75821;DHT22;64454;51.984;9.838;2022-12-07T16:14:31;6.70;1.00
75821;DHT22;64454;51.984;9.838;2022-12-07T16:16:58;6.60;1.00
75821;DHT22;64454;51.984;9.838;2022-12-07T16:19:25;6.60;1.00
75821;DHT22;64454;51.984;9.838;2022-12-07T16:21:52;6.70;1.00
75821;DHT22;64454;51.984;9.838;2022-12-07T16:24:21;6.80;1.00
75821;DHT22;64454;51.984;9.838;2022-12-07T16:26:48;6.90;1.00
75821;DHT22;64454;51.984;9.838;2022-12-07T16:29:16;6.90;1.00
75821;DHT22;64454;51.984;9.838;2022-12-07T16:31:44;7.00;1.00
75821;DHT22;64454;51.984;9.838;2022-12-07T16:34:11;6.90;1.00
75821;DHT22;64454;51.984;9.838;2022-12-07T16:36:38;6.90;1.00
75821;DHT22;64454;51.984;9.838;2022-12-07T16:39:06;6.90;1.00